Caldicot, United Kingdom
Current Conditions -  °F | °C
As of 4:20 AM on Friday 19 Dec 2014 (Local Time) from EGGD Reporting Station
Moderate Rain Moderate Rain  
Wind Chill: 52°   Ceiling: 200
Heat Index: 52°   Visibility: 1mi
Dew Point: 50°   Wind: 21mph
Humidity: 94%   Direction: 250°WSW
Pressure: 29.8"   Gusts: NA
Location:  51.59°N, 2.76°W
Report Text: EGGD 190420Z 25018KT 1600 RA OVC002 11/10 Q1009
Loading
Personal Weather Stations






























Interactive Weather Map New forecast layout! Learn more

10-Day Weather Forecast

Advertisements
Track Severe Weather on mobile